Terminal Aerodrome Forecast
Issued by NWS

Home | Current Version | Previous Version | Graphics & Text | Print | Product List | Glossary On
Versions: 1 2 3 4 5 6 7 8 9 10 11 12 13 14 15 16 17 18 19 20 21 22
000
FTUS43 KABR 220600 AAA
TAFATY
TAF AMD
KATY 220634Z 2207/2306 02003KT 2SM BR FEW002
      TEMPO 2207/2211 1/2SM FG BKN002
     FM221300 VRB05KT P6SM BKN200
     FM230100 05007KT P6SM OVC100=

USA.gov is the U.S. government's official web portal to all federal, state and local government web resources and services.